createdAt,value
2022-12-03T00:01:32.357Z,32.50
2022-12-03T00:04:00.504Z,33.83
2022-12-03T00:06:34.631Z,35.70
2022-12-03T00:09:03.028Z,27.93
2022-12-03T00:11:32.554Z,32.70
2022-12-03T00:14:00.622Z,33.50
2022-12-03T00:16:28.712Z,33.47
2022-12-03T00:18:56.811Z,31.47
2022-12-03T00:21:25.067Z,30.63
2022-12-03T00:23:53.267Z,34.77
2022-12-03T00:26:21.453Z,30.20
2022-12-03T00:28:50.765Z,39.00
2022-12-03T00:31:21.418Z,34.43
2022-12-03T00:33:49.548Z,35.23
2022-12-03T00:36:17.850Z,34.40
2022-12-03T00:38:46.071Z,29.80
2022-12-03T00:41:14.173Z,32.33
2022-12-03T00:43:42.578Z,31.10
2022-12-03T00:46:14.753Z,35.97
2022-12-03T00:48:44.936Z,33.40
2022-12-03T00:51:13.345Z,33.43
2022-12-03T00:53:41.358Z,18.60
2022-12-03T00:56:09.771Z,33.43
2022-12-03T00:58:37.765Z,31.37
2022-12-03T01:01:05.926Z,37.57
2022-12-03T01:03:35.328Z,35.87
2022-12-03T01:06:03.368Z,33.33
2022-12-03T01:08:31.348Z,32.87
2022-12-03T01:10:59.360Z,35.33
2022-12-03T01:13:27.371Z,34.13
2022-12-03T01:15:55.495Z,34.50
2022-12-03T01:18:23.470Z,35.40
2022-12-03T01:20:52.872Z,35.27
2022-12-03T01:23:20.835Z,33.67
2022-12-03T01:25:48.836Z,37.93
2022-12-03T01:28:16.916Z,34.37
2022-12-03T01:30:58.914Z,32.70
2022-12-03T01:33:26.903Z,39.93
2022-12-03T01:35:56.283Z,35.07
2022-12-03T01:38:24.267Z,34.97
2022-12-03T01:40:54.848Z,32.70
2022-12-03T01:43:22.966Z,29.50
2022-12-03T01:45:51.009Z,41.00
2022-12-03T01:48:19.188Z,37.10
2022-12-03T01:50:47.547Z,37.53
2022-12-03T01:53:18.312Z,35.07
2022-12-03T01:55:48.816Z,34.37
2022-12-03T01:58:17.947Z,33.23
2022-12-03T02:00:45.965Z,37.67
2022-12-03T02:03:19.588Z,34.60
2022-12-03T02:05:47.670Z,33.53
2022-12-03T02:08:31.271Z,31.97
2022-12-03T02:11:01.519Z,35.67
2022-12-03T02:13:29.810Z,30.97
2022-12-03T02:15:58.025Z,30.93
2022-12-03T02:18:26.206Z,35.90
2022-12-03T02:21:01.485Z,33.63
2022-12-03T02:23:36.408Z,34.97
2022-12-03T02:26:05.819Z,40.47
2022-12-03T02:28:34.194Z,33.50
2022-12-03T02:31:02.293Z,35.83
2022-12-03T02:33:30.440Z,35.13
2022-12-03T02:36:03.291Z,34.17
2022-12-03T02:38:33.539Z,34.40
2022-12-03T02:41:06.987Z,35.03
2022-12-03T02:43:33.990Z,35.90
2022-12-03T02:46:03.545Z,33.77
2022-12-03T02:48:35.661Z,32.53
2022-12-03T02:51:06.093Z,34.60
2022-12-03T02:53:38.919Z,36.30
2022-12-03T02:56:09.640Z,33.90
2022-12-03T02:58:38.142Z,34.97
2022-12-03T03:01:06.889Z,38.80
2022-12-03T03:03:35.257Z,36.03
2022-12-03T03:06:04.280Z,32.40
2022-12-03T03:08:32.873Z,32.30
2022-12-03T03:11:01.769Z,29.70
2022-12-03T03:13:31.948Z,34.43
2022-12-03T03:16:00.429Z,36.97
2022-12-03T03:18:28.489Z,34.30
2022-12-03T03:20:56.574Z,32.50
2022-12-03T03:23:25.516Z,30.50
2022-12-03T03:25:58.455Z,34.40
2022-12-03T03:28:27.334Z,40.50
2022-12-03T03:30:57.651Z,39.00
2022-12-03T03:33:25.865Z,36.90
2022-12-03T03:35:54.488Z,31.53
2022-12-03T03:38:24.903Z,34.10
2022-12-03T03:40:53.913Z,32.73
2022-12-03T03:43:23.136Z,33.07
2022-12-03T03:45:52.403Z,36.00
2022-12-03T03:48:22.628Z,34.37
2022-12-03T03:50:51.842Z,34.73
2022-12-03T03:53:20.355Z,35.63
2022-12-03T03:55:48.516Z,38.33
2022-12-03T03:58:16.535Z,35.70
2022-12-03T04:00:44.988Z,38.70
2022-12-03T04:03:14.061Z,38.60
2022-12-03T04:05:43.495Z,39.77
2022-12-03T04:08:11.561Z,37.13
2022-12-03T04:10:56.928Z,38.03
2022-12-03T04:13:24.909Z,38.90
2022-12-03T04:15:52.914Z,32.43
2022-12-03T04:18:38.501Z,28.93
2022-12-03T04:21:25.653Z,39.47
2022-12-03T04:23:53.771Z,33.63
2022-12-03T04:26:39.454Z,34.80
2022-12-03T04:29:07.522Z,37.47
2022-12-03T04:31:52.884Z,35.37
2022-12-03T04:34:38.634Z,36.37
2022-12-03T04:37:08.338Z,30.80
2022-12-03T04:39:36.666Z,23.83
2022-12-03T04:42:05.784Z,30.23
2022-12-03T04:44:39.867Z,36.53
2022-12-03T04:47:12.814Z,38.23
2022-12-03T04:49:42.754Z,29.37
2022-12-03T04:52:13.535Z,36.90
2022-12-03T04:54:42.546Z,35.33
2022-12-03T04:57:10.990Z,40.60
2022-12-03T04:59:40.205Z,32.27
2022-12-03T05:02:08.470Z,32.77
2022-12-03T05:04:36.737Z,37.70
2022-12-03T05:07:04.768Z,37.00
2022-12-03T05:09:34.278Z,41.00
2022-12-03T05:12:02.315Z,35.90
2022-12-03T05:14:30.296Z,40.20
2022-12-03T05:16:58.351Z,32.43
2022-12-03T05:19:46.374Z,28.13
2022-12-03T05:22:13.359Z,32.90
2022-12-03T05:24:42.762Z,32.20
2022-12-03T05:27:10.891Z,38.70
2022-12-03T05:29:38.902Z,32.30
2022-12-03T05:32:07.196Z,37.37
2022-12-03T05:34:35.214Z,26.83
2022-12-03T05:37:03.314Z,18.60
2022-12-03T05:39:31.351Z,38.13
2022-12-03T05:42:18.146Z,35.33
2022-12-03T05:44:46.443Z,39.00
2022-12-03T05:47:14.546Z,33.07
2022-12-03T05:49:42.911Z,34.10
2022-12-03T05:52:11.476Z,31.80
2022-12-03T05:54:39.766Z,34.07
2022-12-03T05:57:09.139Z,30.77
2022-12-03T05:59:37.203Z,37.20
2022-12-03T06:02:05.479Z,36.83
2022-12-03T06:04:33.561Z,35.23
2022-12-03T06:07:01.693Z,34.60
2022-12-03T06:09:29.711Z,35.60
2022-12-03T06:11:57.766Z,39.43
2022-12-03T06:14:27.160Z,36.40
2022-12-03T06:16:55.285Z,35.07
2022-12-03T06:19:23.647Z,36.50
2022-12-03T06:21:51.681Z,33.67
2022-12-03T06:24:19.696Z,27.90
2022-12-03T06:26:47.744Z,34.33
2022-12-03T06:29:15.860Z,30.73
2022-12-03T06:31:45.383Z,31.50
2022-12-03T06:34:13.521Z,26.73
2022-12-03T06:36:41.675Z,29.40
2022-12-03T06:39:09.767Z,38.30
2022-12-03T06:41:37.916Z,35.97
2022-12-03T06:44:06.243Z,36.80
2022-12-03T06:46:34.236Z,32.87
2022-12-03T06:49:45.816Z,34.33
2022-12-03T06:52:15.386Z,32.30
2022-12-03T06:54:43.659Z,31.73
2022-12-03T06:57:11.720Z,36.00
2022-12-03T06:59:39.790Z,36.50
2022-12-03T07:02:08.371Z,32.67
2022-12-03T07:04:36.414Z,34.47
2022-12-03T07:07:04.444Z,31.33
2022-12-03T07:09:33.835Z,32.73
2022-12-03T07:12:01.919Z,29.70
2022-12-03T07:14:30.156Z,31.67
2022-12-03T07:16:58.379Z,32.97
2022-12-03T07:19:32.272Z,34.07
2022-12-03T07:22:01.203Z,31.63
2022-12-03T07:24:29.582Z,34.20
2022-12-03T07:26:59.153Z,31.67
2022-12-03T07:29:27.218Z,28.73
2022-12-03T07:31:55.538Z,40.77
2022-12-03T07:34:23.714Z,32.50
2022-12-03T07:36:52.510Z,33.73
2022-12-03T07:39:20.702Z,33.20
2022-12-03T07:41:48.835Z,34.13
2022-12-03T07:44:18.392Z,30.97
2022-12-03T07:46:46.421Z,31.90
2022-12-03T07:49:14.442Z,36.50
2022-12-03T07:51:42.955Z,31.90
2022-12-03T07:54:10.891Z,33.47
2022-12-03T07:56:38.996Z,32.67
2022-12-03T07:59:06.910Z,36.17
2022-12-03T08:01:36.515Z,35.73
2022-12-03T08:04:04.607Z,33.77
2022-12-03T08:06:32.620Z,26.23
2022-12-03T08:09:00.654Z,32.03
2022-12-03T08:11:30.318Z,31.03
2022-12-03T08:13:59.521Z,34.13
2022-12-03T08:16:31.538Z,32.93
2022-12-03T08:19:03.032Z,33.67
2022-12-03T08:21:59.688Z,33.37
2022-12-03T08:24:32.575Z,30.50
2022-12-03T08:27:01.711Z,36.17
2022-12-03T08:30:00.337Z,32.03
2022-12-03T08:32:58.973Z,37.57
2022-12-03T08:35:32.213Z,33.03
2022-12-03T08:38:38.600Z,30.47
2022-12-03T08:42:02.174Z,27.60
2022-12-03T08:44:38.540Z,33.20
2022-12-03T08:47:14.903Z,32.43
2022-12-03T08:49:43.383Z,29.63
2022-12-03T08:52:17.722Z,35.33
2022-12-03T08:54:52.558Z,30.60
2022-12-03T08:57:28.772Z,37.53
2022-12-03T09:00:01.205Z,35.10
2022-12-03T09:02:34.236Z,36.23
2022-12-03T09:05:16.849Z,27.10
2022-12-03T09:07:46.403Z,24.90
2022-12-03T09:15:42.228Z,37.20
2022-12-03T09:17:23.307Z,30.50
2022-12-03T09:20:01.433Z,32.57
2022-12-03T09:29:02.028Z,30.53
2022-12-03T09:38:50.374Z,38.70
2022-12-03T09:41:33.901Z,36.00
2022-12-03T09:44:04.952Z,31.20
2022-12-03T09:46:35.336Z,37.07
2022-12-03T09:49:03.957Z,30.30
2022-12-03T09:51:35.015Z,27.57
2022-12-03T09:54:07.206Z,31.23
2022-12-03T09:56:40.992Z,33.93
2022-12-03T10:03:16.765Z,33.70
2022-12-03T10:06:02.684Z,32.73
2022-12-03T10:08:55.828Z,35.20
2022-12-03T10:11:40.700Z,30.27
2022-12-03T10:14:08.881Z,31.90
2022-12-03T10:16:40.406Z,21.37
2022-12-03T10:19:17.903Z,29.90
2022-12-03T10:21:46.059Z,24.63
2022-12-03T10:24:26.466Z,25.03
2022-12-03T10:26:57.534Z,27.07
2022-12-03T10:29:33.179Z,25.70
2022-12-03T10:32:03.931Z,27.50
2022-12-03T10:34:33.876Z,29.47
2022-12-03T10:37:20.976Z,24.40
2022-12-03T10:40:00.110Z,29.00
2022-12-03T10:42:31.791Z,26.77
2022-12-03T10:45:15.345Z,32.50
2022-12-03T10:47:44.297Z,33.23
2022-12-03T10:50:20.729Z,27.60
2022-12-03T10:52:49.346Z,23.13
2022-12-03T10:55:17.728Z,27.90
2022-12-03T10:57:48.158Z,24.80
2022-12-03T11:00:20.956Z,29.37
2022-12-03T11:02:56.406Z,30.73
2022-12-03T11:05:28.130Z,27.93
2022-12-03T11:07:57.168Z,26.43
2022-12-03T11:10:25.778Z,14.40
2022-12-03T11:13:30.993Z,23.33
2022-12-03T11:15:59.686Z,24.47
2022-12-03T11:19:00.197Z,26.10
2022-12-03T11:21:28.381Z,29.47
2022-12-03T11:24:18.377Z,26.20
2022-12-03T11:27:26.096Z,26.63
2022-12-03T11:29:58.675Z,24.67
2022-12-03T11:33:08.703Z,21.63
2022-12-03T11:36:15.366Z,25.10
2022-12-03T11:39:01.363Z,32.17
2022-12-03T11:41:32.612Z,27.70
2022-12-03T11:44:04.365Z,25.33
2022-12-03T11:46:43.182Z,29.13
2022-12-03T11:49:31.572Z,20.47
2022-12-03T11:52:01.975Z,24.47
2022-12-03T11:54:34.587Z,26.53
2022-12-03T11:57:02.934Z,22.53
2022-12-03T11:59:30.970Z,23.00
2022-12-03T12:02:00.296Z,25.20
2022-12-03T12:04:33.774Z,22.70
2022-12-03T12:07:02.611Z,24.40
2022-12-03T12:09:50.580Z,27.30
2022-12-03T12:12:31.624Z,25.73
2022-12-03T12:15:00.386Z,21.03
2022-12-03T12:17:35.180Z,22.03
2022-12-03T12:20:15.453Z,19.27
2022-12-03T12:22:43.993Z,15.67
2022-12-03T12:25:37.141Z,22.93
2022-12-03T12:28:05.375Z,24.63
2022-12-03T12:30:33.528Z,12.30
2022-12-03T12:33:13.621Z,17.13
2022-12-03T12:35:42.510Z,20.07
2022-12-03T12:38:17.000Z,19.17
2022-12-03T12:40:49.232Z,14.60
2022-12-03T12:43:24.242Z,20.30
2022-12-03T12:45:55.085Z,18.17
2022-12-03T12:48:27.237Z,20.00
2022-12-03T12:51:01.126Z,17.27
2022-12-03T12:53:31.475Z,15.57
2022-12-03T12:56:10.985Z,17.17
2022-12-03T12:58:39.193Z,24.00
2022-12-03T13:01:12.316Z,23.53
2022-12-03T13:03:42.124Z,16.73
2022-12-03T13:06:16.216Z,16.83
2022-12-03T13:08:47.905Z,16.70
2022-12-03T13:11:32.111Z,18.23
2022-12-03T13:14:02.747Z,16.13
2022-12-03T13:16:33.436Z,10.90
2022-12-03T13:19:03.295Z,16.63
2022-12-03T13:21:38.336Z,15.60
2022-12-03T13:24:36.875Z,15.60
2022-12-03T13:27:23.040Z,19.03
2022-12-03T13:29:55.904Z,19.80
2022-12-03T13:32:30.819Z,18.00
2022-12-03T13:35:06.773Z,17.67
2022-12-03T13:37:35.099Z,16.00
2022-12-03T13:40:18.175Z,15.00
2022-12-03T13:42:46.640Z,15.53
2022-12-03T13:45:31.950Z,11.57
2022-12-03T13:48:21.193Z,19.87
2022-12-03T13:50:51.948Z,15.40
2022-12-03T13:53:36.913Z,15.73
2022-12-03T13:56:21.267Z,17.43
2022-12-03T13:58:49.275Z,16.30
2022-12-03T14:01:17.298Z,14.00
2022-12-03T14:03:45.379Z,15.73
2022-12-03T14:06:21.061Z,15.30
2022-12-03T14:08:49.233Z,13.73
2022-12-03T14:11:31.916Z,18.97
2022-12-03T14:14:00.766Z,17.83
2022-12-03T14:16:29.986Z,14.43
2022-12-03T14:18:58.985Z,14.57
2022-12-03T14:21:28.491Z,17.37
2022-12-03T14:23:56.635Z,15.73
2022-12-03T14:26:24.816Z,15.70
2022-12-03T14:28:54.478Z,14.07
2022-12-03T14:31:22.574Z,16.33
2022-12-03T14:33:50.716Z,15.93
2022-12-03T14:36:18.741Z,15.93
2022-12-03T14:38:48.267Z,14.43
2022-12-03T14:41:33.944Z,13.83
2022-12-03T14:44:01.970Z,14.47
2022-12-03T14:46:32.915Z,16.60
2022-12-03T14:49:01.107Z,14.20
2022-12-03T14:51:29.336Z,19.43
2022-12-03T14:53:58.727Z,16.50
2022-12-03T14:56:36.165Z,15.77
2022-12-03T14:59:04.122Z,11.40
2022-12-03T15:01:32.273Z,13.43
2022-12-03T15:04:00.452Z,17.90
2022-12-03T15:06:37.380Z,11.60
2022-12-03T15:09:06.962Z,9.27
2022-12-03T15:11:35.787Z,14.33
2022-12-03T15:14:04.571Z,11.53
2022-12-03T15:16:35.374Z,13.60
2022-12-03T15:19:04.685Z,13.07
2022-12-03T15:21:35.008Z,14.87
2022-12-03T15:24:03.369Z,13.53
2022-12-03T15:26:36.090Z,16.00
2022-12-03T15:29:04.618Z,16.20
2022-12-03T15:31:32.688Z,12.37
2022-12-03T15:34:03.318Z,11.20
2022-12-03T15:36:31.241Z,12.53
2022-12-03T15:38:59.255Z,12.83
2022-12-03T15:41:29.914Z,16.93
2022-12-03T15:44:01.548Z,15.73
2022-12-03T15:46:31.456Z,14.23
2022-12-03T15:49:00.466Z,13.33
2022-12-03T15:51:28.621Z,15.53
2022-12-03T15:53:56.636Z,16.63
2022-12-03T15:56:24.648Z,14.90
2022-12-03T15:58:53.536Z,16.27
2022-12-03T16:01:23.091Z,20.73
2022-12-03T16:03:51.446Z,14.37
2022-12-03T16:06:19.723Z,15.53
2022-12-03T16:08:48.246Z,19.00
2022-12-03T16:11:16.341Z,13.53
2022-12-03T16:13:44.284Z,17.03
2022-12-03T16:16:12.333Z,16.97
2022-12-03T16:18:41.830Z,14.20
2022-12-03T16:21:10.039Z,15.97
2022-12-03T16:23:38.013Z,17.03
2022-12-03T16:26:06.236Z,17.50
2022-12-03T16:28:34.219Z,15.30
2022-12-03T16:31:02.241Z,13.80
2022-12-03T16:33:30.309Z,12.70
2022-12-03T16:35:59.714Z,14.80
2022-12-03T16:38:28.042Z,14.63
2022-12-03T16:40:55.981Z,11.87
2022-12-03T16:43:23.932Z,20.30
2022-12-03T16:46:02.346Z,15.70
2022-12-03T16:48:30.913Z,19.53
2022-12-03T16:51:00.278Z,13.93
2022-12-03T16:53:28.288Z,14.63
2022-12-03T16:55:56.251Z,11.60
2022-12-03T16:58:24.260Z,17.07
2022-12-03T17:00:54.293Z,19.33
2022-12-03T17:03:23.025Z,16.80
2022-12-03T17:05:51.123Z,18.27
2022-12-03T17:08:20.424Z,16.20
2022-12-03T17:10:48.575Z,15.40
2022-12-03T17:13:16.995Z,12.17
2022-12-03T17:15:45.145Z,16.20
2022-12-03T17:18:13.134Z,13.30
2022-12-03T17:20:41.248Z,15.63
2022-12-03T17:23:09.273Z,12.83
2022-12-03T17:25:38.576Z,17.87
2022-12-03T17:28:06.694Z,14.47
2022-12-03T17:30:34.659Z,20.00
2022-12-03T17:33:02.548Z,15.70
2022-12-03T17:35:30.583Z,19.07
2022-12-03T17:37:58.515Z,18.47
2022-12-03T17:40:26.510Z,16.07
2022-12-03T17:42:55.875Z,19.13
2022-12-03T17:45:23.829Z,13.33
2022-12-03T17:47:51.744Z,11.83
2022-12-03T17:50:19.846Z,17.70
2022-12-03T17:52:47.828Z,16.13
2022-12-03T17:55:26.197Z,18.50
2022-12-03T17:57:57.358Z,14.60
2022-12-03T18:00:25.355Z,16.97
2022-12-03T18:02:53.548Z,13.80
2022-12-03T18:05:23.115Z,15.80
2022-12-03T18:07:51.424Z,15.40
2022-12-03T18:10:19.574Z,11.43
2022-12-03T18:12:47.603Z,14.40
2022-12-03T18:15:17.059Z,10.73
2022-12-03T18:17:44.969Z,14.93
2022-12-03T18:20:13.188Z,12.33
2022-12-03T18:22:41.321Z,17.53
2022-12-03T18:25:10.052Z,17.13
2022-12-03T18:27:38.077Z,18.27
2022-12-03T18:30:07.455Z,18.17
2022-12-03T18:32:39.865Z,14.67
2022-12-03T18:35:08.342Z,13.67
2022-12-03T18:37:36.599Z,17.53
2022-12-03T18:45:29.813Z,12.33
2022-12-03T18:47:59.743Z,14.00
2022-12-03T18:50:28.063Z,14.73
2022-12-03T18:52:56.154Z,16.50
2022-12-03T18:55:25.316Z,20.60
2022-12-03T18:57:53.486Z,18.97
2022-12-03T19:00:24.677Z,15.73
2022-12-03T19:03:08.410Z,15.43
2022-12-03T19:05:38.094Z,16.63
2022-12-03T19:08:14.231Z,18.00
2022-12-03T19:10:43.164Z,18.00
2022-12-03T19:13:11.780Z,14.33
2022-12-03T19:15:40.261Z,14.77
2022-12-03T19:18:08.357Z,19.80
2022-12-03T19:20:41.492Z,16.83
2022-12-03T19:23:09.858Z,16.17
2022-12-03T19:25:38.091Z,16.53
2022-12-03T19:28:06.440Z,16.37
2022-12-03T19:30:34.824Z,11.77
2022-12-03T19:33:03.029Z,17.27
2022-12-03T19:35:32.303Z,11.60
2022-12-03T19:38:01.950Z,13.53
2022-12-03T19:40:32.307Z,14.90
2022-12-03T19:43:00.505Z,16.50
2022-12-03T19:45:28.613Z,13.87
2022-12-03T19:47:56.739Z,17.10
2022-12-03T19:50:25.056Z,20.73
2022-12-03T19:52:53.213Z,18.37
2022-12-03T19:55:23.063Z,22.70
2022-12-03T19:57:51.265Z,21.90
2022-12-03T20:00:20.269Z,21.40
2022-12-03T20:02:50.746Z,17.87
2022-12-03T20:05:19.006Z,19.07
2022-12-03T20:07:47.204Z,16.67
2022-12-03T20:10:15.540Z,18.33
2022-12-03T20:12:47.343Z,18.30
2022-12-03T20:15:15.446Z,18.70
2022-12-03T20:17:43.606Z,13.70
2022-12-03T20:20:12.417Z,13.73
2022-12-03T20:22:40.532Z,14.97
2022-12-03T20:25:09.341Z,23.47
2022-12-03T20:27:37.736Z,16.87
2022-12-03T20:30:08.598Z,11.80
2022-12-03T20:32:41.996Z,17.53
2022-12-03T20:35:13.203Z,16.47
2022-12-03T20:37:42.668Z,13.30
2022-12-03T20:40:11.485Z,16.57
2022-12-03T20:42:39.568Z,17.13
2022-12-03T20:45:10.537Z,13.77
2022-12-03T20:47:38.633Z,12.47
2022-12-03T20:50:08.112Z,18.17
2022-12-03T20:52:36.379Z,18.60
2022-12-03T20:55:04.551Z,15.43
2022-12-03T20:57:32.624Z,16.10
2022-12-03T21:00:00.712Z,12.37
2022-12-03T21:02:30.223Z,18.30
2022-12-03T21:04:58.717Z,15.57
2022-12-03T21:07:29.944Z,17.57
2022-12-03T21:09:58.179Z,15.37
2022-12-03T21:12:26.375Z,14.27
2022-12-03T21:14:56.825Z,17.33
2022-12-03T21:17:25.219Z,20.10
2022-12-03T21:19:56.700Z,18.23
2022-12-03T21:22:25.209Z,14.33
2022-12-03T21:25:00.543Z,16.80
2022-12-03T21:27:30.251Z,13.77
2022-12-03T21:29:58.393Z,16.10
2022-12-03T21:32:26.455Z,20.90
2022-12-03T21:34:55.850Z,17.80
2022-12-03T21:37:23.879Z,17.10
2022-12-03T21:39:52.085Z,15.23
2022-12-03T21:42:35.906Z,16.07
2022-12-03T21:45:06.258Z,19.37
2022-12-03T21:47:37.291Z,20.13
2022-12-03T21:50:11.089Z,15.80
2022-12-03T21:52:39.368Z,15.30
2022-12-03T21:55:08.115Z,18.07
2022-12-03T21:57:37.483Z,18.50
2022-12-03T22:00:07.854Z,16.40
2022-12-03T22:02:36.125Z,15.97
2022-12-03T22:05:04.360Z,18.77
2022-12-03T22:07:35.781Z,17.77
2022-12-03T22:10:03.937Z,21.63
2022-12-03T22:12:32.613Z,17.13
2022-12-03T22:15:00.704Z,20.40
2022-12-03T22:17:29.014Z,25.23
2022-12-03T22:19:57.202Z,19.33
2022-12-03T22:22:25.492Z,16.97
2022-12-03T22:24:54.908Z,16.03
2022-12-03T22:27:22.983Z,17.63
2022-12-03T22:29:51.248Z,16.67
2022-12-03T22:32:19.667Z,13.73
2022-12-03T22:34:47.857Z,16.70
2022-12-03T22:37:16.104Z,14.90
2022-12-03T22:39:44.291Z,17.57
2022-12-03T22:42:13.951Z,18.03
2022-12-03T22:44:41.933Z,16.97
2022-12-03T22:47:10.487Z,16.57
2022-12-03T22:49:38.600Z,13.83
2022-12-03T22:52:06.793Z,14.27
2022-12-03T22:54:35.080Z,17.43
2022-12-03T22:57:03.550Z,12.20
2022-12-03T22:59:32.981Z,15.67
2022-12-03T23:02:01.518Z,13.27
2022-12-03T23:04:31.003Z,11.00
2022-12-03T23:06:59.316Z,15.63
2022-12-03T23:09:27.687Z,16.13
2022-12-03T23:11:55.905Z,14.87
2022-12-03T23:14:24.298Z,12.00
2022-12-03T23:16:53.902Z,16.40
2022-12-03T23:19:22.623Z,15.03
2022-12-03T23:21:51.234Z,14.73
2022-12-03T23:24:19.316Z,13.57
2022-12-03T23:26:47.442Z,12.50
2022-12-03T23:29:15.608Z,12.63
2022-12-03T23:31:44.057Z,17.40
2022-12-03T23:34:13.895Z,14.80
2022-12-03T23:36:42.037Z,13.40
2022-12-03T23:39:10.223Z,11.50
2022-12-03T23:41:38.418Z,14.90
2022-12-03T23:44:07.035Z,14.23
2022-12-03T23:46:35.373Z,12.73
2022-12-03T23:49:03.630Z,16.53
2022-12-03T23:51:33.117Z,14.83
2022-12-03T23:54:01.091Z,14.20
2022-12-03T23:56:30.912Z,16.43
2022-12-03T23:58:59.644Z,14.97
